Pagina principale
METAR-TAF:

METAR-TAF

Aeroporti :

Aeroporto Internazionale di Guam

Hagåtña, Guam, Stati Uniti

latitudine: 13-29N, longitudine: 144-48E, altezza: 91 m

Osservazione

Il bollettino è stato emesso 24 minuti fa, alle 22:54 UTC
Vento 5 kt da est/sud-est
Temperature 29°C
Umidità 89%
Pressione 1012 hPa
Visibilità: 16.1 km
Poco nuvoloso ad un'altezza di 1900 ft
Nubi sparse ad un'altezza di 2600 ft
Nuvoloso ad un'altezza di 4300 ft

METAR: PGUM 242254Z 11005KT 10SM FEW019 SCT026 BKN043 29/27 A2987 RMK AO2 SLP106 T02940267

Ora: 09:18 (23:18 UTC)

Previsione

Il bollettino è stato emesso 5 ore e 52 minuti fa, alle 17:26 UTC
Previsione valida dal 24 alle 18 UTC al 25 alle 24 UTC
Vento 10 kt da est
Visibilità: 10 km
Poco nuvoloso ad un'altezza di 2000 ft
Nubi sparse ad un'altezza di 4000 ft
rovesci nelle vicinanze

TAF: PGUM 241726Z 2418/2524 09010KT P6SM VCSH FEW020 SCT040

Osservazioni e previsioni meteorologiche di più di 4000 aeroporti (messaggi METAR e TAF).

Le stazioni disponibili sono rappresentate dai dischi gialli e rossi sulla carta.

Puntare il mouse per vedere il nome della stazione.

Clicca sopra per visualizzare le osservazioni e previsioni meteorologiche.

Per cambiare la mappa : fare clic sui pulsanti verdi con una croce nera per ingrandire, il pulsante verde con un trattino per diminuire, o sulla freccia verde per le mappe adiacenti.


METAR-TAF: